sensor_id;sensor_type;location;lat;lon;timestamp;temperature;humidity
68801;SHT31;55784;50.734;7.086;2023-12-20T00:01:00;8.37;97.52
68801;SHT31;55784;50.734;7.086;2023-12-20T00:03:25;8.36;97.58
68801;SHT31;55784;50.734;7.086;2023-12-20T00:05:51;8.38;97.60
68801;SHT31;55784;50.734;7.086;2023-12-20T00:08:16;8.42;97.53
68801;SHT31;55784;50.734;7.086;2023-12-20T00:10:43;8.45;97.36
68801;SHT31;55784;50.734;7.086;2023-12-20T00:13:08;8.44;97.35
68801;SHT31;55784;50.734;7.086;2023-12-20T00:15:34;8.38;97.30
68801;SHT31;55784;50.734;7.086;2023-12-20T00:17:59;8.41;97.32
68801;SHT31;55784;50.734;7.086;2023-12-20T00:20:26;8.40;97.38
68801;SHT31;55784;50.734;7.086;2023-12-20T00:22:51;8.37;97.36
68801;SHT31;55784;50.734;7.086;2023-12-20T00:25:16;8.42;97.47
68801;SHT31;55784;50.734;7.086;2023-12-20T00:27:41;8.44;97.24
68801;SHT31;55784;50.734;7.086;2023-12-20T00:30:07;8.44;97.15
68801;SHT31;55784;50.734;7.086;2023-12-20T00:32:34;8.42;97.12
68801;SHT31;55784;50.734;7.086;2023-12-20T00:34:59;8.51;96.96
68801;SHT31;55784;50.734;7.086;2023-12-20T00:37:25;8.44;96.97
68801;SHT31;55784;50.734;7.086;2023-12-20T00:39:50;8.38;96.98
68801;SHT31;55784;50.734;7.086;2023-12-20T00:42:15;8.44;96.94
68801;SHT31;55784;50.734;7.086;2023-12-20T00:44:41;8.40;96.98
68801;SHT31;55784;50.734;7.086;2023-12-20T00:47:06;8.42;97.05
68801;SHT31;55784;50.734;7.086;2023-12-20T00:49:31;8.45;97.15
68801;SHT31;55784;50.734;7.086;2023-12-20T00:51:56;8.40;97.28
68801;SHT31;55784;50.734;7.086;2023-12-20T00:54:22;8.28;97.74
68801;SHT31;55784;50.734;7.086;2023-12-20T00:56:47;8.36;97.73
68801;SHT31;55784;50.734;7.086;2023-12-20T00:59:12;8.30;98.01
68801;SHT31;55784;50.734;7.086;2023-12-20T01:01:38;8.20;98.40
68801;SHT31;55784;50.734;7.086;2023-12-20T01:04:03;8.14;98.82
68801;SHT31;55784;50.734;7.086;2023-12-20T01:06:29;8.07;99.06
68801;SHT31;55784;50.734;7.086;2023-12-20T01:08:54;8.13;99.10
68801;SHT31;55784;50.734;7.086;2023-12-20T01:11:19;8.13;98.86
68801;SHT31;55784;50.734;7.086;2023-12-20T01:13:44;8.10;98.81
68801;SHT31;55784;50.734;7.086;2023-12-20T01:16:10;8.06;98.81
68801;SHT31;55784;50.734;7.086;2023-12-20T01:18:36;8.06;98.98
68801;SHT31;55784;50.734;7.086;2023-12-20T01:21:05;8.07;98.81
68801;SHT31;55784;50.734;7.086;2023-12-20T01:23:30;8.07;98.73
68801;SHT31;55784;50.734;7.086;2023-12-20T01:25:56;8.11;98.45
68801;SHT31;55784;50.734;7.086;2023-12-20T01:28:21;8.07;98.70
68801;SHT31;55784;50.734;7.086;2023-12-20T01:30:47;8.10;98.43
68801;SHT31;55784;50.734;7.086;2023-12-20T01:33:12;8.08;98.46
68801;SHT31;55784;50.734;7.086;2023-12-20T01:35:37;8.10;98.46
68801;SHT31;55784;50.734;7.086;2023-12-20T01:38:03;8.10;98.19
68801;SHT31;55784;50.734;7.086;2023-12-20T01:40:28;8.10;98.30
68801;SHT31;55784;50.734;7.086;2023-12-20T01:43:18;8.00;98.32
68801;SHT31;55784;50.734;7.086;2023-12-20T01:45:43;7.96;98.82
68801;SHT31;55784;50.734;7.086;2023-12-20T01:48:09;7.94;98.32
68801;SHT31;55784;50.734;7.086;2023-12-20T01:50:36;7.94;98.50
68801;SHT31;55784;50.734;7.086;2023-12-20T01:53:02;7.94;98.54
68801;SHT31;55784;50.734;7.086;2023-12-20T01:55:31;7.87;98.46
68801;SHT31;55784;50.734;7.086;2023-12-20T01:57:59;7.84;98.03
68801;SHT31;55784;50.734;7.086;2023-12-20T02:00:25;7.82;97.74
68801;SHT31;55784;50.734;7.086;2023-12-20T02:02:53;7.80;97.59
68801;SHT31;55784;50.734;7.086;2023-12-20T02:05:21;7.89;97.47
68801;SHT31;55784;50.734;7.086;2023-12-20T02:07:46;7.86;97.35
68801;SHT31;55784;50.734;7.086;2023-12-20T02:10:11;7.86;97.30
68801;SHT31;55784;50.734;7.086;2023-12-20T02:12:38;7.82;97.33
68801;SHT31;55784;50.734;7.086;2023-12-20T02:15:04;7.82;96.85
68801;SHT31;55784;50.734;7.086;2023-12-20T02:17:30;7.76;96.08
68801;SHT31;55784;50.734;7.086;2023-12-20T02:19:56;7.75;96.02
68801;SHT31;55784;50.734;7.086;2023-12-20T02:22:21;7.75;94.21
68801;SHT31;55784;50.734;7.086;2023-12-20T02:24:47;7.79;94.00
68801;SHT31;55784;50.734;7.086;2023-12-20T02:27:12;7.61;93.53
68801;SHT31;55784;50.734;7.086;2023-12-20T02:29:38;7.42;93.60
68801;SHT31;55784;50.734;7.086;2023-12-20T02:32:03;7.28;93.29
68801;SHT31;55784;50.734;7.086;2023-12-20T02:34:29;7.15;93.44
68801;SHT31;55784;50.734;7.086;2023-12-20T02:36:54;7.04;93.33
68801;SHT31;55784;50.734;7.086;2023-12-20T02:39:21;6.94;93.80
68801;SHT31;55784;50.734;7.086;2023-12-20T02:41:46;6.84;94.21
68801;SHT31;55784;50.734;7.086;2023-12-20T02:44:12;6.74;94.62
68801;SHT31;55784;50.734;7.086;2023-12-20T02:46:37;6.64;94.63
68801;SHT31;55784;50.734;7.086;2023-12-20T02:49:03;6.61;94.93
68801;SHT31;55784;50.734;7.086;2023-12-20T02:51:28;6.57;95.06
68801;SHT31;55784;50.734;7.086;2023-12-20T02:53:53;6.58;94.87
68801;SHT31;55784;50.734;7.086;2023-12-20T02:56:18;6.61;94.81
68801;SHT31;55784;50.734;7.086;2023-12-20T02:58:44;6.63;94.64
68801;SHT31;55784;50.734;7.086;2023-12-20T03:01:09;6.60;94.65
68801;SHT31;55784;50.734;7.086;2023-12-20T03:03:34;6.54;94.79
68801;SHT31;55784;50.734;7.086;2023-12-20T03:06:00;6.44;94.62
68801;SHT31;55784;50.734;7.086;2023-12-20T03:08:25;6.41;94.85
68801;SHT31;55784;50.734;7.086;2023-12-20T03:10:51;6.40;94.66
68801;SHT31;55784;50.734;7.086;2023-12-20T03:13:16;6.49;94.67
68801;SHT31;55784;50.734;7.086;2023-12-20T03:15:42;6.49;94.23
68801;SHT31;55784;50.734;7.086;2023-12-20T03:18:07;6.53;94.01
68801;SHT31;55784;50.734;7.086;2023-12-20T03:20:32;6.53;93.80
68801;SHT31;55784;50.734;7.086;2023-12-20T03:23:00;6.57;93.77
68801;SHT31;55784;50.734;7.086;2023-12-20T03:25:25;6.64;93.94
68801;SHT31;55784;50.734;7.086;2023-12-20T03:27:50;6.70;93.60
68801;SHT31;55784;50.734;7.086;2023-12-20T03:30:16;6.69;93.46
68801;SHT31;55784;50.734;7.086;2023-12-20T03:32:41;6.71;93.26
68801;SHT31;55784;50.734;7.086;2023-12-20T03:35:07;6.79;93.33
68801;SHT31;55784;50.734;7.086;2023-12-20T03:37:32;6.79;93.31
68801;SHT31;55784;50.734;7.086;2023-12-20T03:39:57;6.81;93.20
68801;SHT31;55784;50.734;7.086;2023-12-20T03:42:23;6.83;93.03
68801;SHT31;55784;50.734;7.086;2023-12-20T03:44:48;6.84;93.07
68801;SHT31;55784;50.734;7.086;2023-12-20T03:47:13;6.87;93.01
68801;SHT31;55784;50.734;7.086;2023-12-20T03:49:39;6.88;93.19
68801;SHT31;55784;50.734;7.086;2023-12-20T03:52:04;6.87;93.10
68801;SHT31;55784;50.734;7.086;2023-12-20T03:54:30;6.91;93.26
68801;SHT31;55784;50.734;7.086;2023-12-20T03:56:55;6.94;93.01
68801;SHT31;55784;50.734;7.086;2023-12-20T03:59:20;6.92;92.67
68801;SHT31;55784;50.734;7.086;2023-12-20T04:01:46;6.97;93.02
68801;SHT31;55784;50.734;7.086;2023-12-20T04:04:13;7.00;92.77
68801;SHT31;55784;50.734;7.086;2023-12-20T04:06:39;6.98;92.59
68801;SHT31;55784;50.734;7.086;2023-12-20T04:09:04;6.98;92.37
68801;SHT31;55784;50.734;7.086;2023-12-20T04:11:29;6.97;92.81
68801;SHT31;55784;50.734;7.086;2023-12-20T04:13:55;6.98;92.56
68801;SHT31;55784;50.734;7.086;2023-12-20T04:16:20;7.01;92.62
68801;SHT31;55784;50.734;7.086;2023-12-20T04:18:46;6.97;93.06
68801;SHT31;55784;50.734;7.086;2023-12-20T04:21:11;6.98;93.02
68801;SHT31;55784;50.734;7.086;2023-12-20T04:23:36;6.95;92.80
68801;SHT31;55784;50.734;7.086;2023-12-20T04:26:02;7.01;92.77
68801;SHT31;55784;50.734;7.086;2023-12-20T04:28:27;7.04;92.57
68801;SHT31;55784;50.734;7.086;2023-12-20T04:30:55;7.00;92.46
68801;SHT31;55784;50.734;7.086;2023-12-20T04:33:21;7.02;92.16
68801;SHT31;55784;50.734;7.086;2023-12-20T04:35:46;7.00;92.39
68801;SHT31;55784;50.734;7.086;2023-12-20T04:38:11;7.01;92.23
68801;SHT31;55784;50.734;7.086;2023-12-20T04:40:37;6.95;92.81
68801;SHT31;55784;50.734;7.086;2023-12-20T04:43:02;6.92;92.72
68801;SHT31;55784;50.734;7.086;2023-12-20T04:45:28;6.95;92.99
68801;SHT31;55784;50.734;7.086;2023-12-20T04:47:54;6.97;93.15
68801;SHT31;55784;50.734;7.086;2023-12-20T04:50:20;6.95;92.91
68801;SHT31;55784;50.734;7.086;2023-12-20T04:52:46;6.91;92.79
68801;SHT31;55784;50.734;7.086;2023-12-20T04:55:12;6.94;92.75
68801;SHT31;55784;50.734;7.086;2023-12-20T04:57:37;6.98;92.84
68801;SHT31;55784;50.734;7.086;2023-12-20T05:00:02;7.04;92.88
68801;SHT31;55784;50.734;7.086;2023-12-20T05:02:28;7.00;92.75
68801;SHT31;55784;50.734;7.086;2023-12-20T05:04:53;6.97;93.45
68801;SHT31;55784;50.734;7.086;2023-12-20T05:07:19;6.88;93.34
68801;SHT31;55784;50.734;7.086;2023-12-20T05:09:44;6.79;93.55
68801;SHT31;55784;50.734;7.086;2023-12-20T05:12:09;6.73;93.41
68801;SHT31;55784;50.734;7.086;2023-12-20T05:14:34;6.60;93.61
68801;SHT31;55784;50.734;7.086;2023-12-20T05:17:00;6.51;93.26
68801;SHT31;55784;50.734;7.086;2023-12-20T05:19:25;6.53;93.61
68801;SHT31;55784;50.734;7.086;2023-12-20T05:21:51;6.58;93.18
68801;SHT31;55784;50.734;7.086;2023-12-20T05:24:17;6.56;93.20
68801;SHT31;55784;50.734;7.086;2023-12-20T05:26:42;6.43;93.65
68801;SHT31;55784;50.734;7.086;2023-12-20T05:29:07;6.37;94.26
68801;SHT31;55784;50.734;7.086;2023-12-20T05:31:33;6.29;94.21
68801;SHT31;55784;50.734;7.086;2023-12-20T05:33:59;6.26;94.38
68801;SHT31;55784;50.734;7.086;2023-12-20T05:36:24;6.16;94.75
68801;SHT31;55784;50.734;7.086;2023-12-20T05:38:50;6.23;94.98
68801;SHT31;55784;50.734;7.086;2023-12-20T05:41:16;6.27;95.13
68801;SHT31;55784;50.734;7.086;2023-12-20T05:43:41;6.22;94.72
68801;SHT31;55784;50.734;7.086;2023-12-20T05:46:07;6.19;94.63
68801;SHT31;55784;50.734;7.086;2023-12-20T05:48:32;6.19;94.65
68801;SHT31;55784;50.734;7.086;2023-12-20T05:50:57;6.19;94.65
68801;SHT31;55784;50.734;7.086;2023-12-20T05:53:23;6.20;94.70
68801;SHT31;55784;50.734;7.086;2023-12-20T05:55:48;6.20;94.45
68801;SHT31;55784;50.734;7.086;2023-12-20T05:58:13;6.20;94.54
68801;SHT31;55784;50.734;7.086;2023-12-20T06:00:38;6.20;94.38
68801;SHT31;55784;50.734;7.086;2023-12-20T06:03:04;6.25;94.24
68801;SHT31;55784;50.734;7.086;2023-12-20T06:05:30;6.32;93.84
68801;SHT31;55784;50.734;7.086;2023-12-20T06:07:56;6.37;93.96
68801;SHT31;55784;50.734;7.086;2023-12-20T06:10:26;6.34;93.94
68801;SHT31;55784;50.734;7.086;2023-12-20T06:12:52;6.30;94.11
68801;SHT31;55784;50.734;7.086;2023-12-20T06:15:17;6.25;94.44
68801;SHT31;55784;50.734;7.086;2023-12-20T06:17:42;6.26;94.28
68801;SHT31;55784;50.734;7.086;2023-12-20T06:20:08;6.25;94.39
68801;SHT31;55784;50.734;7.086;2023-12-20T06:22:35;6.26;94.27
68801;SHT31;55784;50.734;7.086;2023-12-20T06:25:00;6.33;94.11
68801;SHT31;55784;50.734;7.086;2023-12-20T06:27:25;6.36;93.87
68801;SHT31;55784;50.734;7.086;2023-12-20T06:29:51;6.44;93.45
68801;SHT31;55784;50.734;7.086;2023-12-20T06:32:16;6.44;93.53
68801;SHT31;55784;50.734;7.086;2023-12-20T06:34:41;6.49;93.22
68801;SHT31;55784;50.734;7.086;2023-12-20T06:37:07;6.50;92.98
68801;SHT31;55784;50.734;7.086;2023-12-20T06:39:32;6.54;92.82
68801;SHT31;55784;50.734;7.086;2023-12-20T06:41:59;6.56;92.81
68801;SHT31;55784;50.734;7.086;2023-12-20T06:44:24;6.61;93.08
68801;SHT31;55784;50.734;7.086;2023-12-20T06:46:50;6.66;93.06
68801;SHT31;55784;50.734;7.086;2023-12-20T06:49:15;6.73;92.42
68801;SHT31;55784;50.734;7.086;2023-12-20T06:51:41;6.76;92.54
68801;SHT31;55784;50.734;7.086;2023-12-20T06:54:06;6.79;92.36
68801;SHT31;55784;50.734;7.086;2023-12-20T06:56:32;6.83;92.36
68801;SHT31;55784;50.734;7.086;2023-12-20T06:58:57;6.85;91.83
68801;SHT31;55784;50.734;7.086;2023-12-20T07:01:23;6.88;91.94
68801;SHT31;55784;50.734;7.086;2023-12-20T07:03:48;6.87;91.93
68801;SHT31;55784;50.734;7.086;2023-12-20T07:06:13;6.87;91.75
68801;SHT31;55784;50.734;7.086;2023-12-20T07:08:41;6.91;91.61
68801;SHT31;55784;50.734;7.086;2023-12-20T07:11:07;6.90;91.29
68801;SHT31;55784;50.734;7.086;2023-12-20T07:13:32;6.90;90.90
68801;SHT31;55784;50.734;7.086;2023-12-20T07:15:57;6.92;91.05
68801;SHT31;55784;50.734;7.086;2023-12-20T07:18:23;6.92;90.94
68801;SHT31;55784;50.734;7.086;2023-12-20T07:20:48;6.98;90.96
68801;SHT31;55784;50.734;7.086;2023-12-20T07:23:14;6.98;90.38
68801;SHT31;55784;50.734;7.086;2023-12-20T07:25:39;7.02;90.44
68801;SHT31;55784;50.734;7.086;2023-12-20T07:28:05;6.98;90.35
68801;SHT31;55784;50.734;7.086;2023-12-20T07:30:30;7.00;90.36
68801;SHT31;55784;50.734;7.086;2023-12-20T07:32:55;7.00;90.28
68801;SHT31;55784;50.734;7.086;2023-12-20T07:35:22;7.02;90.00
68801;SHT31;55784;50.734;7.086;2023-12-20T07:37:48;7.00;90.18
68801;SHT31;55784;50.734;7.086;2023-12-20T07:40:13;7.04;90.15
68801;SHT31;55784;50.734;7.086;2023-12-20T07:42:38;7.04;89.71
68801;SHT31;55784;50.734;7.086;2023-12-20T07:45:04;7.05;89.51
68801;SHT31;55784;50.734;7.086;2023-12-20T07:47:30;7.05;89.19
68801;SHT31;55784;50.734;7.086;2023-12-20T07:49:55;7.08;89.07
68801;SHT31;55784;50.734;7.086;2023-12-20T07:52:20;7.09;88.90
68801;SHT31;55784;50.734;7.086;2023-12-20T07:54:47;7.14;88.57
68801;SHT31;55784;50.734;7.086;2023-12-20T07:57:13;7.14;88.53
68801;SHT31;55784;50.734;7.086;2023-12-20T07:59:38;7.19;88.49
68801;SHT31;55784;50.734;7.086;2023-12-20T08:02:03;7.22;88.55
68801;SHT31;55784;50.734;7.086;2023-12-20T08:04:29;7.22;88.24
68801;SHT31;55784;50.734;7.086;2023-12-20T08:06:54;7.23;87.90
68801;SHT31;55784;50.734;7.086;2023-12-20T08:09:20;7.22;87.72
68801;SHT31;55784;50.734;7.086;2023-12-20T08:11:46;7.28;87.56
68801;SHT31;55784;50.734;7.086;2023-12-20T08:14:12;7.35;87.87
68801;SHT31;55784;50.734;7.086;2023-12-20T08:16:37;7.33;87.28
68801;SHT31;55784;50.734;7.086;2023-12-20T08:19:02;7.35;87.23
68801;SHT31;55784;50.734;7.086;2023-12-20T08:21:27;7.31;87.41
68801;SHT31;55784;50.734;7.086;2023-12-20T08:23:53;7.38;87.39
68801;SHT31;55784;50.734;7.086;2023-12-20T08:26:19;7.41;87.38
68801;SHT31;55784;50.734;7.086;2023-12-20T08:28:48;7.31;87.64
68801;SHT31;55784;50.734;7.086;2023-12-20T08:31:14;7.39;87.81
68801;SHT31;55784;50.734;7.086;2023-12-20T08:33:41;7.42;87.41
68801;SHT31;55784;50.734;7.086;2023-12-20T08:36:06;7.45;87.24
68801;SHT31;55784;50.734;7.086;2023-12-20T08:38:31;7.46;87.24
68801;SHT31;55784;50.734;7.086;2023-12-20T08:40:57;7.53;86.98
68801;SHT31;55784;50.734;7.086;2023-12-20T08:43:22;7.55;86.82
68801;SHT31;55784;50.734;7.086;2023-12-20T08:45:47;7.52;86.74
68801;SHT31;55784;50.734;7.086;2023-12-20T08:48:13;7.51;86.82
68801;SHT31;55784;50.734;7.086;2023-12-20T08:50:38;7.48;86.81
68801;SHT31;55784;50.734;7.086;2023-12-20T08:53:04;7.45;87.01
68801;SHT31;55784;50.734;7.086;2023-12-20T08:55:29;7.46;86.72
68801;SHT31;55784;50.734;7.086;2023-12-20T08:57:56;7.53;86.73
68801;SHT31;55784;50.734;7.086;2023-12-20T09:00:21;7.62;85.92
68801;SHT31;55784;50.734;7.086;2023-12-20T09:02:49;7.73;85.78
68801;SHT31;55784;50.734;7.086;2023-12-20T09:05:15;7.84;85.55
68801;SHT31;55784;50.734;7.086;2023-12-20T09:07:43;7.84;85.32
68801;SHT31;55784;50.734;7.086;2023-12-20T09:10:08;7.89;85.28
68801;SHT31;55784;50.734;7.086;2023-12-20T09:12:34;7.87;85.22
68801;SHT31;55784;50.734;7.086;2023-12-20T09:14:59;7.91;84.90
68801;SHT31;55784;50.734;7.086;2023-12-20T09:17:27;7.93;85.00
68801;SHT31;55784;50.734;7.086;2023-12-20T09:19:53;7.86;85.07
68801;SHT31;55784;50.734;7.086;2023-12-20T09:22:19;7.93;85.03
68801;SHT31;55784;50.734;7.086;2023-12-20T09:24:44;7.93;84.54
68801;SHT31;55784;50.734;7.086;2023-12-20T09:27:10;7.89;84.63
68801;SHT31;55784;50.734;7.086;2023-12-20T09:29:35;7.97;84.69
68801;SHT31;55784;50.734;7.086;2023-12-20T09:32:01;7.94;84.55
68801;SHT31;55784;50.734;7.086;2023-12-20T09:34:26;7.94;84.77
68801;SHT31;55784;50.734;7.086;2023-12-20T09:36:52;8.01;84.77
68801;SHT31;55784;50.734;7.086;2023-12-20T09:39:18;7.96;84.26
68801;SHT31;55784;50.734;7.086;2023-12-20T09:41:51;7.90;84.62
68801;SHT31;55784;50.734;7.086;2023-12-20T09:44:21;7.97;84.56
68801;SHT31;55784;50.734;7.086;2023-12-20T09:46:49;8.06;85.10
68801;SHT31;55784;50.734;7.086;2023-12-20T09:49:17;7.96;85.00
68801;SHT31;55784;50.734;7.086;2023-12-20T09:51:43;8.00;84.34
68801;SHT31;55784;50.734;7.086;2023-12-20T09:54:13;8.08;84.70
68801;SHT31;55784;50.734;7.086;2023-12-20T09:56:39;8.06;84.03
68801;SHT31;55784;50.734;7.086;2023-12-20T09:59:04;8.04;84.54
68801;SHT31;55784;50.734;7.086;2023-12-20T10:01:30;7.98;84.56
68801;SHT31;55784;50.734;7.086;2023-12-20T10:03:56;8.03;84.80
68801;SHT31;55784;50.734;7.086;2023-12-20T10:06:23;8.01;84.86
68801;SHT31;55784;50.734;7.086;2023-12-20T10:08:49;8.03;84.86
68801;SHT31;55784;50.734;7.086;2023-12-20T10:11:14;8.07;84.37
68801;SHT31;55784;50.734;7.086;2023-12-20T10:13:40;8.10;84.46
68801;SHT31;55784;50.734;7.086;2023-12-20T10:16:06;8.08;84.19
68801;SHT31;55784;50.734;7.086;2023-12-20T10:18:32;8.03;84.45
68801;SHT31;55784;50.734;7.086;2023-12-20T10:20:58;8.00;84.68
68801;SHT31;55784;50.734;7.086;2023-12-20T10:23:23;8.11;84.45
68801;SHT31;55784;50.734;7.086;2023-12-20T10:25:59;8.21;84.30
68801;SHT31;55784;50.734;7.086;2023-12-20T10:28:25;8.30;84.01
68801;SHT31;55784;50.734;7.086;2023-12-20T10:30:55;8.28;84.50
68801;SHT31;55784;50.734;7.086;2023-12-20T10:33:27;8.18;84.31
68801;SHT31;55784;50.734;7.086;2023-12-20T10:35:53;8.21;84.10
68801;SHT31;55784;50.734;7.086;2023-12-20T10:38:19;8.27;84.27
68801;SHT31;55784;50.734;7.086;2023-12-20T10:40:47;8.21;84.27
68801;SHT31;55784;50.734;7.086;2023-12-20T10:45:41;8.28;84.24
68801;SHT31;55784;50.734;7.086;2023-12-20T10:48:10;8.27;84.15
68801;SHT31;55784;50.734;7.086;2023-12-20T10:50:36;8.23;84.09
68801;SHT31;55784;50.734;7.086;2023-12-20T10:53:03;8.27;84.63
68801;SHT31;55784;50.734;7.086;2023-12-20T10:55:29;8.28;84.37
68801;SHT31;55784;50.734;7.086;2023-12-20T10:58:06;8.34;84.42
68801;SHT31;55784;50.734;7.086;2023-12-20T11:00:32;8.47;84.53
68801;SHT31;55784;50.734;7.086;2023-12-20T11:03:01;8.44;84.47
68801;SHT31;55784;50.734;7.086;2023-12-20T11:05:50;8.38;84.44
68801;SHT31;55784;50.734;7.086;2023-12-20T11:08:20;8.42;84.36
68801;SHT31;55784;50.734;7.086;2023-12-20T11:10:59;8.42;84.51
68801;SHT31;55784;50.734;7.086;2023-12-20T11:14:03;8.44;84.15
68801;SHT31;55784;50.734;7.086;2023-12-20T11:16:32;8.37;84.48
68801;SHT31;55784;50.734;7.086;2023-12-20T11:19:04;8.42;84.77
68801;SHT31;55784;50.734;7.086;2023-12-20T11:21:30;8.49;84.51
68801;SHT31;55784;50.734;7.086;2023-12-20T11:23:55;8.59;84.62
68801;SHT31;55784;50.734;7.086;2023-12-20T11:26:27;8.62;84.03
68801;SHT31;55784;50.734;7.086;2023-12-20T11:29:34;8.48;84.00
68801;SHT31;55784;50.734;7.086;2023-12-20T11:32:01;8.52;84.43
68801;SHT31;55784;50.734;7.086;2023-12-20T11:34:28;8.38;84.80
68801;SHT31;55784;50.734;7.086;2023-12-20T11:37:00;8.45;84.46
68801;SHT31;55784;50.734;7.086;2023-12-20T11:39:26;8.38;84.46
68801;SHT31;55784;50.734;7.086;2023-12-20T11:41:54;8.34;84.72
68801;SHT31;55784;50.734;7.086;2023-12-20T11:44:21;8.41;84.83
68801;SHT31;55784;50.734;7.086;2023-12-20T11:46:47;8.40;84.37
68801;SHT31;55784;50.734;7.086;2023-12-20T11:49:12;8.44;84.57
68801;SHT31;55784;50.734;7.086;2023-12-20T11:51:41;8.44;84.30
68801;SHT31;55784;50.734;7.086;2023-12-20T11:54:07;8.44;84.24
68801;SHT31;55784;50.734;7.086;2023-12-20T11:56:35;8.54;84.04
68801;SHT31;55784;50.734;7.086;2023-12-20T11:59:00;8.54;84.29
68801;SHT31;55784;50.734;7.086;2023-12-20T12:01:26;8.51;84.01
68801;SHT31;55784;50.734;7.086;2023-12-20T12:04:02;8.67;83.73
68801;SHT31;55784;50.734;7.086;2023-12-20T12:06:28;8.89;83.37
68801;SHT31;55784;50.734;7.086;2023-12-20T12:08:54;9.15;82.55
68801;SHT31;55784;50.734;7.086;2023-12-20T12:11:19;9.30;81.75
68801;SHT31;55784;50.734;7.086;2023-12-20T12:13:45;9.34;81.46
68801;SHT31;55784;50.734;7.086;2023-12-20T12:16:10;9.29;81.88
68801;SHT31;55784;50.734;7.086;2023-12-20T12:18:36;9.19;81.97
68801;SHT31;55784;50.734;7.086;2023-12-20T12:21:03;9.19;82.18
68801;SHT31;55784;50.734;7.086;2023-12-20T12:23:28;9.23;82.43
68801;SHT31;55784;50.734;7.086;2023-12-20T12:25:54;9.29;82.15
68801;SHT31;55784;50.734;7.086;2023-12-20T12:28:20;9.19;81.96
68801;SHT31;55784;50.734;7.086;2023-12-20T12:30:58;9.02;82.18
68801;SHT31;55784;50.734;7.086;2023-12-20T12:33:25;8.95;82.73
68801;SHT31;55784;50.734;7.086;2023-12-20T12:35:51;8.92;83.16
68801;SHT31;55784;50.734;7.086;2023-12-20T12:38:20;8.92;83.05
68801;SHT31;55784;50.734;7.086;2023-12-20T12:40:46;8.82;83.05
68801;SHT31;55784;50.734;7.086;2023-12-20T12:43:11;8.95;83.33
68801;SHT31;55784;50.734;7.086;2023-12-20T12:45:37;8.90;83.69
68801;SHT31;55784;50.734;7.086;2023-12-20T12:48:03;8.85;83.45
68801;SHT31;55784;50.734;7.086;2023-12-20T12:50:30;8.82;83.81
68801;SHT31;55784;50.734;7.086;2023-12-20T12:52:55;8.79;83.69
68801;SHT31;55784;50.734;7.086;2023-12-20T12:55:20;8.76;83.91
68801;SHT31;55784;50.734;7.086;2023-12-20T12:57:46;8.82;83.54
68801;SHT31;55784;50.734;7.086;2023-12-20T13:00:11;8.86;83.62
68801;SHT31;55784;50.734;7.086;2023-12-20T13:02:37;8.88;83.36
68801;SHT31;55784;50.734;7.086;2023-12-20T13:05:04;8.90;83.67
68801;SHT31;55784;50.734;7.086;2023-12-20T13:07:29;8.83;83.73
68801;SHT31;55784;50.734;7.086;2023-12-20T13:09:55;8.86;84.02
68801;SHT31;55784;50.734;7.086;2023-12-20T13:12:20;8.65;84.15
68801;SHT31;55784;50.734;7.086;2023-12-20T13:14:46;8.76;84.37
68801;SHT31;55784;50.734;7.086;2023-12-20T13:17:12;8.82;84.11
68801;SHT31;55784;50.734;7.086;2023-12-20T13:19:37;8.73;84.43
68801;SHT31;55784;50.734;7.086;2023-12-20T13:22:03;8.83;84.48
68801;SHT31;55784;50.734;7.086;2023-12-20T13:24:29;8.83;83.93
68801;SHT31;55784;50.734;7.086;2023-12-20T13:26:54;8.93;84.04
68801;SHT31;55784;50.734;7.086;2023-12-20T13:29:20;8.86;84.10
68801;SHT31;55784;50.734;7.086;2023-12-20T13:31:45;8.79;84.68
68801;SHT31;55784;50.734;7.086;2023-12-20T13:34:11;8.81;85.67
68801;SHT31;55784;50.734;7.086;2023-12-20T13:36:37;8.55;86.63
68801;SHT31;55784;50.734;7.086;2023-12-20T13:39:03;8.52;87.03
68801;SHT31;55784;50.734;7.086;2023-12-20T13:41:30;8.42;87.60
68801;SHT31;55784;50.734;7.086;2023-12-20T13:43:55;8.31;88.33
68801;SHT31;55784;50.734;7.086;2023-12-20T13:46:21;8.37;88.56
68801;SHT31;55784;50.734;7.086;2023-12-20T13:48:46;8.33;89.07
68801;SHT31;55784;50.734;7.086;2023-12-20T13:51:12;8.47;89.11
68801;SHT31;55784;50.734;7.086;2023-12-20T13:53:37;8.44;88.96
68801;SHT31;55784;50.734;7.086;2023-12-20T13:56:04;8.45;89.00
68801;SHT31;55784;50.734;7.086;2023-12-20T13:58:29;8.55;88.94
68801;SHT31;55784;50.734;7.086;2023-12-20T14:00:54;8.54;89.25
68801;SHT31;55784;50.734;7.086;2023-12-20T14:03:20;8.51;89.50
68801;SHT31;55784;50.734;7.086;2023-12-20T14:05:45;8.54;89.04
68801;SHT31;55784;50.734;7.086;2023-12-20T14:08:11;8.64;88.88
68801;SHT31;55784;50.734;7.086;2023-12-20T14:10:36;8.64;89.39
68801;SHT31;55784;50.734;7.086;2023-12-20T14:13:04;8.57;89.16
68801;SHT31;55784;50.734;7.086;2023-12-20T14:15:30;8.61;88.73
68801;SHT31;55784;50.734;7.086;2023-12-20T14:17:55;8.54;89.21
68801;SHT31;55784;50.734;7.086;2023-12-20T14:20:21;8.57;88.54
68801;SHT31;55784;50.734;7.086;2023-12-20T14:22:46;8.51;88.44
68801;SHT31;55784;50.734;7.086;2023-12-20T14:25:13;8.54;88.18
68801;SHT31;55784;50.734;7.086;2023-12-20T14:27:42;8.51;88.49
68801;SHT31;55784;50.734;7.086;2023-12-20T14:30:09;8.58;88.31
68801;SHT31;55784;50.734;7.086;2023-12-20T14:32:34;8.67;87.74
68801;SHT31;55784;50.734;7.086;2023-12-20T14:35:02;8.62;87.78
68801;SHT31;55784;50.734;7.086;2023-12-20T14:37:29;8.62;87.29
68801;SHT31;55784;50.734;7.086;2023-12-20T14:39:54;8.68;87.38
68801;SHT31;55784;50.734;7.086;2023-12-20T14:42:20;8.67;87.28
68801;SHT31;55784;50.734;7.086;2023-12-20T14:44:45;8.68;87.28
68801;SHT31;55784;50.734;7.086;2023-12-20T14:47:10;8.65;86.83
68801;SHT31;55784;50.734;7.086;2023-12-20T14:49:36;8.72;86.76
68801;SHT31;55784;50.734;7.086;2023-12-20T14:52:02;8.64;86.88
68801;SHT31;55784;50.734;7.086;2023-12-20T14:54:28;8.61;87.14
68801;SHT31;55784;50.734;7.086;2023-12-20T14:56:53;8.62;87.30
68801;SHT31;55784;50.734;7.086;2023-12-20T14:59:18;8.67;87.51
68801;SHT31;55784;50.734;7.086;2023-12-20T15:01:44;8.64;87.35
68801;SHT31;55784;50.734;7.086;2023-12-20T15:04:10;8.65;87.64
68801;SHT31;55784;50.734;7.086;2023-12-20T15:06:35;8.57;87.70
68801;SHT31;55784;50.734;7.086;2023-12-20T15:09:00;8.52;88.10
68801;SHT31;55784;50.734;7.086;2023-12-20T15:11:27;8.44;88.40
68801;SHT31;55784;50.734;7.086;2023-12-20T15:13:53;8.51;88.43
68801;SHT31;55784;50.734;7.086;2023-12-20T15:16:23;8.57;88.51
68801;SHT31;55784;50.734;7.086;2023-12-20T15:18:49;8.49;88.60
68801;SHT31;55784;50.734;7.086;2023-12-20T15:21:15;8.52;88.92
68801;SHT31;55784;50.734;7.086;2023-12-20T15:23:40;8.51;88.78
68801;SHT31;55784;50.734;7.086;2023-12-20T15:26:09;8.37;89.11
68801;SHT31;55784;50.734;7.086;2023-12-20T15:28:34;8.38;89.21
68801;SHT31;55784;50.734;7.086;2023-12-20T15:30:59;8.34;89.38
68801;SHT31;55784;50.734;7.086;2023-12-20T15:33:25;8.34;89.50
68801;SHT31;55784;50.734;7.086;2023-12-20T15:35:50;8.36;89.39
68801;SHT31;55784;50.734;7.086;2023-12-20T15:38:15;8.31;89.61
68801;SHT31;55784;50.734;7.086;2023-12-20T15:40:42;8.33;89.51